createdAt,value
2023-04-23T00:00:06.832Z,40.90
2023-04-23T00:03:05.172Z,41.20
2023-04-23T00:05:37.037Z,46.00
2023-04-23T00:08:10.534Z,36.10
2023-04-23T00:10:41.700Z,42.70
2023-04-23T00:13:16.496Z,43.90
2023-04-23T00:16:14.142Z,48.40
2023-04-23T00:18:44.737Z,43.80
2023-04-23T00:21:15.852Z,42.30
2023-04-23T00:26:15.522Z,40.10
2023-04-23T00:28:46.237Z,36.00
2023-04-23T00:31:16.839Z,40.60
2023-04-23T00:33:47.504Z,37.10
2023-04-23T00:36:18.884Z,35.20
2023-04-23T00:38:49.596Z,36.60
2023-04-23T00:41:20.747Z,42.90
2023-04-23T00:43:52.105Z,38.10
2023-04-23T00:46:26.166Z,36.20
2023-04-23T00:48:57.022Z,38.70
2023-04-23T00:51:28.020Z,36.50
2023-04-23T00:56:28.376Z,32.90
2023-04-23T00:58:59.306Z,38.30
2023-04-23T01:01:30.086Z,42.70
2023-04-23T01:04:01.638Z,39.70
2023-04-23T01:06:32.696Z,43.50
2023-04-23T01:09:03.685Z,38.70
2023-04-23T01:14:04.876Z,34.20
2023-04-23T01:16:35.981Z,38.80
2023-04-23T01:21:40.170Z,39.90
2023-04-23T01:24:12.308Z,40.40
2023-04-23T01:26:43.665Z,45.90
2023-04-23T01:29:14.787Z,34.90
2023-04-23T01:34:15.648Z,34.00
2023-04-23T01:36:47.757Z,31.20
2023-04-23T01:39:18.480Z,37.10
2023-04-23T01:41:49.625Z,38.00
2023-04-23T01:44:20.285Z,33.40
2023-04-23T01:46:50.924Z,33.30
2023-04-23T01:49:21.703Z,32.60
2023-04-23T01:51:52.357Z,32.80
2023-04-23T01:54:23.014Z,36.60
2023-04-23T01:56:53.743Z,33.00
2023-04-23T01:59:24.612Z,32.80
2023-04-23T02:01:55.269Z,33.80
2023-04-23T02:04:26.261Z,39.90
2023-04-23T02:09:26.151Z,36.80
2023-04-23T02:11:56.741Z,40.10
2023-04-23T02:14:27.474Z,42.20
2023-04-23T02:16:58.126Z,40.40
2023-04-23T02:19:28.852Z,44.70
2023-04-23T02:21:59.557Z,45.70
2023-04-23T02:24:30.761Z,50.70
2023-04-23T02:27:01.384Z,43.60
2023-04-23T02:29:32.237Z,50.00
2023-04-23T02:32:02.986Z,53.20
2023-04-23T02:34:33.994Z,44.60
2023-04-23T02:39:34.367Z,51.80
2023-04-23T02:42:05.235Z,49.50
2023-04-23T02:44:35.983Z,45.20
2023-04-23T02:47:07.019Z,41.20
2023-04-23T02:49:37.780Z,37.60
2023-04-23T02:52:08.516Z,39.80
2023-04-23T02:54:39.310Z,42.70
2023-04-23T02:57:10.270Z,37.70
2023-04-23T02:59:40.947Z,43.80
2023-04-23T03:02:11.680Z,41.50
2023-04-23T03:04:42.639Z,36.90
2023-04-23T03:07:13.515Z,36.40
2023-04-23T03:09:44.145Z,34.90
2023-04-23T03:12:14.766Z,35.70
2023-04-23T03:14:45.497Z,35.40
2023-04-23T03:17:24.883Z,37.90
2023-04-23T03:19:56.239Z,32.80
2023-04-23T03:22:26.882Z,32.80
2023-04-23T03:25:17.524Z,35.10
2023-04-23T03:27:51.340Z,34.60
2023-04-23T03:30:22.218Z,33.90
2023-04-23T03:32:53.195Z,32.00
2023-04-23T03:37:54.131Z,29.40
2023-04-23T03:42:53.847Z,33.90
2023-04-23T03:45:24.921Z,29.40
2023-04-23T03:47:55.970Z,29.40
2023-04-23T03:50:26.675Z,26.70
2023-04-23T03:52:57.828Z,31.70
2023-04-23T03:55:35.498Z,27.90
2023-04-23T03:58:06.162Z,26.20
2023-04-23T04:00:37.084Z,28.40
2023-04-23T04:03:08.096Z,23.90
2023-04-23T04:05:38.823Z,22.90
2023-04-23T04:08:09.583Z,25.70
2023-04-23T04:10:40.310Z,18.30
2023-04-23T04:13:10.956Z,23.40
2023-04-23T04:15:41.639Z,22.20
2023-04-23T04:18:12.270Z,17.70
2023-04-23T04:20:42.960Z,21.40
2023-04-23T04:23:13.733Z,19.40
2023-04-23T04:25:44.325Z,17.50
2023-04-23T04:28:15.468Z,18.30
2023-04-23T04:30:46.217Z,20.20
2023-04-23T04:33:51.031Z,16.70
2023-04-23T04:36:21.744Z,16.70
2023-04-23T04:38:52.407Z,16.00
2023-04-23T04:41:23.092Z,16.00
2023-04-23T04:43:56.031Z,16.20
2023-04-23T04:46:27.042Z,18.10
2023-04-23T04:48:57.788Z,13.50
2023-04-23T04:53:59.475Z,15.30
2023-04-23T04:58:59.144Z,16.90
2023-04-23T05:04:02.315Z,15.40
2023-04-23T05:06:33.699Z,12.80
2023-04-23T05:09:04.522Z,18.40
2023-04-23T05:11:35.381Z,16.90
2023-04-23T05:16:36.750Z,13.50
2023-04-23T05:19:07.385Z,14.00
2023-04-23T05:21:38.085Z,15.50
2023-04-23T05:26:40.219Z,16.10
2023-04-23T05:29:10.900Z,14.70
2023-04-23T05:31:42.053Z,13.40
2023-04-23T05:34:12.666Z,18.40
2023-04-23T05:36:43.393Z,16.00
2023-04-23T05:39:14.113Z,21.10
2023-04-23T05:41:45.427Z,17.00
2023-04-23T05:44:17.254Z,15.90
2023-04-23T05:46:47.913Z,16.50
2023-04-23T05:49:18.589Z,16.40
2023-04-23T05:51:49.643Z,15.10
2023-04-23T05:54:20.756Z,14.20
2023-04-23T05:56:52.838Z,24.00
2023-04-23T05:59:25.764Z,13.90
2023-04-23T06:01:56.540Z,17.80
2023-04-23T06:04:27.683Z,12.50
2023-04-23T06:06:58.805Z,14.30
2023-04-23T06:09:29.389Z,16.50
2023-04-23T06:12:00.177Z,15.60
2023-04-23T06:14:30.929Z,15.40
2023-04-23T06:17:01.553Z,13.40
2023-04-23T06:19:34.813Z,12.70
2023-04-23T06:22:05.569Z,15.40
2023-04-23T06:24:36.831Z,13.20
2023-04-23T06:27:07.513Z,14.80
2023-04-23T06:29:38.438Z,17.30
2023-04-23T06:32:09.215Z,12.80
2023-04-23T06:34:46.776Z,15.50
2023-04-23T06:37:24.260Z,14.20
2023-04-23T06:39:55.240Z,16.30
2023-04-23T06:42:25.932Z,17.30
2023-04-23T06:44:56.933Z,15.60
2023-04-23T06:47:27.693Z,13.90
2023-04-23T06:49:58.617Z,15.80
2023-04-23T06:52:29.309Z,12.40
2023-04-23T06:54:59.900Z,14.60
2023-04-23T06:57:30.745Z,14.10
2023-04-23T07:02:30.501Z,11.10
2023-04-23T07:07:30.592Z,11.70
2023-04-23T07:10:01.250Z,12.70
2023-04-23T07:12:31.922Z,11.90
2023-04-23T07:15:02.735Z,12.90
2023-04-23T07:20:02.668Z,9.50
2023-04-23T07:22:45.369Z,10.90
2023-04-23T07:25:16.112Z,14.30
2023-04-23T07:30:16.583Z,11.90
2023-04-23T07:32:47.354Z,11.30
2023-04-23T07:37:47.374Z,10.30
2023-04-23T07:40:18.184Z,16.10
2023-04-23T07:45:18.113Z,9.80
2023-04-23T07:50:18.781Z,13.80
2023-04-23T07:52:51.947Z,15.00
2023-04-23T07:57:51.710Z,12.90
2023-04-23T08:00:22.464Z,11.40
2023-04-23T08:05:24.387Z,10.80
2023-04-23T08:07:55.078Z,11.30
2023-04-23T08:10:26.029Z,11.80
2023-04-23T08:15:26.507Z,13.00
2023-04-23T08:17:57.268Z,10.30
2023-04-23T08:22:57.272Z,7.90
2023-04-23T08:25:28.135Z,12.20
2023-04-23T08:27:58.759Z,12.40
2023-04-23T08:30:29.817Z,10.60
2023-04-23T08:33:00.535Z,15.50
2023-04-23T08:35:31.285Z,11.20
2023-04-23T08:38:02.026Z,9.90
2023-04-23T08:43:08.674Z,9.80
2023-04-23T08:45:42.229Z,9.60
2023-04-23T08:48:13.793Z,13.00
2023-04-23T08:50:45.901Z,10.30
2023-04-23T08:53:19.504Z,8.00
2023-04-23T08:55:51.596Z,8.40
2023-04-23T08:58:23.639Z,7.80
2023-04-23T09:00:55.630Z,12.70
2023-04-23T09:03:26.836Z,7.90
2023-04-23T09:05:57.893Z,10.40
2023-04-23T09:08:29.127Z,10.30
2023-04-23T09:11:01.794Z,9.90
2023-04-23T09:13:33.882Z,9.60
2023-04-23T09:16:06.569Z,10.50
2023-04-23T09:18:37.565Z,13.10
2023-04-23T09:21:08.814Z,7.90
2023-04-23T09:23:41.404Z,9.50
2023-04-23T09:26:19.401Z,8.20
2023-04-23T09:28:50.603Z,9.10
2023-04-23T09:31:24.844Z,5.70
2023-04-23T09:33:55.748Z,11.00
2023-04-23T09:36:26.431Z,9.20
2023-04-23T09:39:00.358Z,7.90
2023-04-23T09:41:31.027Z,9.00
2023-04-23T09:44:02.501Z,10.90
2023-04-23T09:46:37.754Z,8.70
2023-04-23T09:49:09.507Z,11.40
2023-04-23T09:51:41.194Z,8.30
2023-04-23T09:54:16.226Z,6.60
2023-04-23T09:56:51.251Z,9.10
2023-04-23T09:59:46.787Z,11.20
2023-04-23T10:02:17.545Z,7.40
2023-04-23T10:04:52.321Z,12.00
2023-04-23T10:07:25.789Z,7.70
2023-04-23T10:09:56.457Z,7.40
2023-04-23T10:12:46.175Z,5.50
2023-04-23T10:15:18.694Z,8.20
2023-04-23T10:17:50.647Z,8.40
2023-04-23T10:20:23.064Z,9.30
2023-04-23T10:22:55.291Z,7.70
2023-04-23T10:25:26.153Z,3.90
2023-04-23T10:27:58.469Z,7.90
2023-04-23T10:30:30.019Z,6.30
2023-04-23T10:33:02.693Z,6.30
2023-04-23T10:35:34.556Z,9.60
2023-04-23T10:38:05.455Z,4.70
2023-04-23T10:40:41.328Z,7.30
2023-04-23T10:43:12.216Z,5.90
2023-04-23T10:45:43.656Z,6.30
2023-04-23T10:48:14.404Z,7.80
2023-04-23T10:51:04.740Z,7.00
2023-04-23T10:56:10.590Z,6.00
2023-04-23T10:58:53.573Z,6.40
2023-04-23T11:15:34.193Z,7.90
2023-04-23T11:18:05.307Z,4.70
2023-04-23T11:20:37.470Z,6.20
2023-04-23T11:23:08.522Z,5.30
2023-04-23T11:25:42.083Z,7.50
2023-04-23T11:28:13.014Z,6.40
2023-04-23T11:30:43.719Z,5.40
2023-04-23T11:33:14.450Z,5.00
2023-04-23T11:35:45.256Z,6.50
2023-04-23T11:38:15.924Z,7.50
2023-04-23T11:40:51.536Z,8.60
2023-04-23T11:43:22.122Z,8.20
2023-04-23T11:48:21.954Z,6.70
2023-04-23T11:53:23.652Z,8.00
2023-04-23T11:55:55.305Z,8.20
2023-04-23T11:58:25.955Z,6.70
2023-04-23T12:03:29.734Z,6.80
2023-04-23T12:06:00.573Z,8.50
2023-04-23T12:08:34.593Z,9.90
2023-04-23T12:11:05.686Z,5.90
2023-04-23T12:13:39.683Z,7.20
2023-04-23T12:16:11.210Z,6.80
2023-04-23T12:18:43.241Z,6.40
2023-04-23T12:21:14.775Z,8.70
2023-04-23T12:23:45.656Z,7.20
2023-04-23T12:26:19.088Z,6.40
2023-04-23T12:28:51.420Z,8.70
2023-04-23T12:31:22.755Z,5.50
2023-04-23T12:34:02.080Z,6.90
2023-04-23T12:36:33.669Z,7.00
2023-04-23T12:39:25.414Z,6.20
2023-04-23T12:41:57.438Z,7.70
2023-04-23T12:44:28.617Z,6.60
2023-04-23T12:47:01.293Z,6.10
2023-04-23T12:49:33.786Z,8.20
2023-04-23T12:52:06.236Z,6.60
2023-04-23T12:54:38.683Z,4.50
2023-04-23T12:57:12.298Z,8.80
2023-04-23T12:59:43.165Z,8.90
2023-04-23T13:02:14.222Z,5.40
2023-04-23T13:04:44.853Z,8.20
2023-04-23T13:09:44.865Z,4.60
2023-04-23T13:12:15.828Z,4.60
2023-04-23T13:14:46.819Z,5.60
2023-04-23T13:17:17.552Z,4.70
2023-04-23T13:19:48.164Z,5.40
2023-04-23T13:22:18.778Z,8.60
2023-04-23T13:24:49.569Z,4.40
2023-04-23T13:27:20.226Z,3.80
2023-04-23T13:29:50.879Z,9.10
2023-04-23T13:32:22.720Z,3.40
2023-04-23T13:34:53.500Z,6.10
2023-04-23T13:37:24.217Z,3.90
2023-04-23T13:39:54.953Z,8.20
2023-04-23T13:42:25.641Z,4.30
2023-04-23T13:44:56.291Z,6.70
2023-04-23T13:47:27.085Z,5.00
2023-04-23T13:49:58.290Z,8.40
2023-04-23T13:52:28.998Z,6.20
2023-04-23T13:54:59.789Z,3.90
2023-04-23T13:57:30.441Z,7.20
2023-04-23T14:00:01.145Z,5.30
2023-04-23T14:02:31.918Z,2.70
2023-04-23T14:05:02.658Z,3.80
2023-04-23T14:07:33.526Z,3.70
2023-04-23T14:10:04.593Z,3.90
2023-04-23T14:12:35.346Z,2.90
2023-04-23T14:15:07.817Z,3.40
2023-04-23T14:17:39.545Z,6.60
2023-04-23T14:20:10.997Z,4.60
2023-04-23T14:22:41.974Z,3.40
2023-04-23T14:25:24.244Z,6.30
2023-04-23T14:28:02.287Z,7.40
2023-04-23T14:30:34.434Z,4.10
2023-04-23T14:33:05.247Z,4.60
2023-04-23T14:38:12.510Z,2.90
2023-04-23T14:40:43.168Z,4.90
2023-04-23T14:45:47.208Z,2.10
2023-04-23T14:48:17.982Z,5.60
2023-04-23T14:53:18.787Z,2.90
2023-04-23T14:55:49.372Z,2.50
2023-04-23T14:58:20.104Z,2.40
2023-04-23T15:03:20.042Z,2.10
2023-04-23T15:05:50.813Z,2.50
2023-04-23T15:10:50.514Z,6.30
2023-04-23T15:16:26.290Z,3.10
2023-04-23T15:19:07.497Z,4.90
2023-04-23T15:21:38.652Z,5.30
2023-04-23T15:24:09.491Z,8.10
2023-04-23T15:29:09.485Z,9.00
2023-04-23T15:31:40.434Z,5.70
2023-04-23T15:34:11.278Z,6.40
2023-04-23T15:36:41.950Z,5.00
2023-04-23T15:41:43.045Z,8.00
2023-04-23T15:44:15.540Z,6.80
2023-04-23T15:49:15.199Z,11.10
2023-04-23T15:51:46.099Z,9.20
2023-04-23T15:54:16.714Z,11.50
2023-04-23T15:56:47.464Z,14.90
2023-04-23T16:01:47.881Z,7.90
2023-04-23T16:04:18.717Z,8.50
2023-04-23T16:06:49.646Z,7.90
2023-04-23T16:11:49.467Z,5.60
2023-04-23T16:16:49.325Z,3.50
2023-04-23T16:19:20.570Z,5.60
2023-04-23T16:21:51.285Z,3.30
2023-04-23T16:24:21.985Z,8.60
2023-04-23T16:29:24.431Z,9.10
2023-04-23T16:31:55.149Z,8.60
2023-04-23T16:34:25.764Z,3.60
2023-04-23T16:39:46.490Z,3.80
2023-04-23T16:44:46.736Z,4.70
2023-04-23T16:47:19.053Z,3.50
2023-04-23T16:49:50.012Z,2.70
2023-04-23T16:52:20.776Z,4.60
2023-04-23T16:54:51.797Z,4.40
2023-04-23T16:57:22.920Z,3.70
2023-04-23T16:59:56.195Z,2.80
2023-04-23T17:02:29.440Z,3.40
2023-04-23T17:05:00.324Z,4.70
2023-04-23T17:07:30.991Z,4.60
2023-04-23T17:12:41.115Z,3.00
2023-04-23T17:15:12.816Z,3.60
2023-04-23T17:17:45.890Z,3.40
2023-04-23T17:20:17.575Z,2.70
2023-04-23T17:22:48.291Z,3.70
2023-04-23T17:25:19.114Z,3.90
2023-04-23T17:30:18.914Z,5.30
2023-04-23T17:35:23.973Z,2.40
2023-04-23T17:37:54.687Z,1.90
2023-04-23T17:40:32.229Z,2.40
2023-04-23T17:43:03.204Z,5.00
2023-04-23T17:45:35.310Z,3.70
2023-04-23T17:50:36.750Z,2.80
2023-04-23T17:53:07.602Z,5.40
2023-04-23T17:58:11.212Z,6.20
2023-04-23T18:00:44.401Z,6.50
2023-04-23T18:05:45.557Z,10.30
2023-04-23T18:10:45.565Z,9.00
2023-04-23T18:13:16.453Z,7.90
2023-04-23T18:18:16.374Z,5.70
2023-04-23T18:20:47.290Z,7.40
2023-04-23T18:23:20.622Z,7.30
2023-04-23T18:25:51.503Z,4.70
2023-04-23T18:28:23.576Z,5.60
2023-04-23T18:30:54.483Z,4.90
2023-04-23T18:36:05.500Z,7.90
2023-04-23T18:38:43.881Z,9.00
2023-04-23T18:41:15.838Z,11.60
2023-04-23T18:43:46.519Z,15.20
2023-04-23T18:46:17.371Z,22.10
2023-04-23T18:51:36.924Z,37.40
2023-04-23T18:54:07.609Z,38.60
2023-04-23T18:57:03.490Z,37.90
2023-04-23T18:59:34.178Z,23.80
2023-04-23T19:02:05.525Z,17.30
2023-04-23T19:04:57.023Z,16.00
2023-04-23T19:07:27.802Z,18.90
2023-04-23T19:09:58.448Z,19.00
2023-04-23T19:12:29.535Z,17.00
2023-04-23T19:15:00.172Z,18.70
2023-04-23T19:17:30.958Z,17.30
2023-04-23T19:22:30.868Z,15.30
2023-04-23T19:25:01.504Z,15.20
2023-04-23T19:27:32.479Z,12.40
2023-04-23T19:30:06.792Z,16.50
2023-04-23T19:32:40.771Z,12.00
2023-04-23T19:35:11.493Z,14.10
2023-04-23T19:37:42.208Z,14.30
2023-04-23T19:40:13.634Z,15.10
2023-04-23T19:42:44.473Z,12.10
2023-04-23T19:45:18.173Z,13.70
2023-04-23T19:47:48.971Z,15.10
2023-04-23T19:50:23.743Z,15.50
2023-04-23T19:52:54.491Z,17.20
2023-04-23T19:55:28.636Z,14.80
2023-04-23T19:57:59.387Z,17.40
2023-04-23T20:00:30.066Z,15.00
2023-04-23T20:03:01.056Z,17.00
2023-04-23T20:05:36.442Z,13.90
2023-04-23T20:08:10.399Z,18.70
2023-04-23T20:10:41.131Z,18.70
2023-04-23T20:13:14.474Z,24.80
2023-04-23T20:15:45.437Z,33.90
2023-04-23T20:20:47.753Z,27.20
2023-04-23T20:23:18.501Z,23.80
2023-04-23T20:25:51.382Z,25.20
2023-04-23T20:28:55.007Z,31.20
2023-04-23T20:31:23.494Z,35.70
2023-04-23T20:33:54.190Z,37.70
2023-04-23T20:36:25.861Z,40.70
2023-04-23T20:38:56.660Z,48.70
2023-04-23T20:41:30.319Z,47.30
2023-04-23T20:44:01.294Z,56.00
2023-04-23T20:46:32.935Z,56.30
2023-04-23T20:49:06.140Z,70.80
2023-04-23T20:51:36.849Z,74.20
2023-04-23T20:54:07.741Z,69.20
2023-04-23T20:59:07.535Z,71.70
2023-04-23T21:01:38.646Z,73.40
2023-04-23T21:04:09.987Z,76.80
2023-04-23T21:06:40.988Z,71.70
2023-04-23T21:09:11.682Z,76.20
2023-04-23T21:11:42.555Z,69.00
2023-04-23T21:16:42.794Z,92.20
2023-04-23T21:19:13.455Z,83.20
2023-04-23T21:21:44.274Z,71.40
2023-04-23T21:26:44.194Z,60.10
2023-04-23T21:29:14.878Z,60.10
2023-04-23T21:31:48.370Z,55.80
2023-04-23T21:34:19.384Z,58.40
2023-04-23T21:36:50.434Z,57.10
2023-04-23T21:41:50.196Z,51.40
2023-04-23T21:44:20.932Z,56.90
2023-04-23T21:46:51.658Z,50.60
2023-04-23T21:49:22.430Z,53.20
2023-04-23T21:51:53.070Z,61.80
2023-04-23T21:54:23.792Z,61.20
2023-04-23T21:56:54.660Z,69.50
2023-04-23T22:01:54.879Z,64.40
2023-04-23T22:04:25.783Z,81.10
2023-04-23T22:07:17.341Z,85.00
2023-04-23T22:09:48.055Z,86.80
2023-04-23T22:12:18.737Z,78.90
2023-04-23T22:14:49.541Z,84.00
2023-04-23T22:17:20.257Z,87.00
2023-04-23T22:19:50.969Z,76.00
2023-04-23T22:22:21.691Z,51.80
2023-04-23T22:24:52.385Z,37.80
2023-04-23T22:27:23.105Z,28.00
2023-04-23T22:29:53.757Z,24.70
2023-04-23T22:32:24.403Z,22.70
2023-04-23T22:34:55.395Z,24.20
2023-04-23T22:37:26.210Z,26.20
2023-04-23T22:39:56.999Z,25.20
2023-04-23T22:42:27.886Z,26.10
2023-04-23T22:47:28.409Z,23.70
2023-04-23T22:49:59.304Z,21.60
2023-04-23T22:54:59.128Z,24.30
2023-04-23T22:57:30.163Z,28.00
2023-04-23T23:00:01.577Z,35.40
2023-04-23T23:02:32.365Z,30.30
2023-04-23T23:05:03.193Z,35.00
2023-04-23T23:07:33.772Z,32.70
2023-04-23T23:10:07.113Z,27.80
2023-04-23T23:12:38.325Z,28.80
2023-04-23T23:15:10.898Z,30.90
2023-04-23T23:17:41.597Z,25.80
2023-04-23T23:20:12.971Z,26.20
2023-04-23T23:22:43.770Z,30.80
2023-04-23T23:25:14.505Z,26.90
2023-04-23T23:27:45.181Z,35.70
2023-04-23T23:30:15.986Z,35.60
2023-04-23T23:32:47.239Z,38.30
2023-04-23T23:35:18.168Z,33.50
2023-04-23T23:37:48.813Z,30.10
2023-04-23T23:40:20.040Z,27.80
2023-04-23T23:42:50.658Z,19.50
2023-04-23T23:45:21.354Z,19.90
2023-04-23T23:47:52.309Z,20.00
2023-04-23T23:50:23.396Z,17.80
2023-04-23T23:55:23.124Z,18.30
2023-04-23T23:57:53.779Z,22.90
